Alamosa, CO

12:33 PM MDT on July 26, 2014 (GMT -0600)
San Luis Valley Regional / Bergman Field (KALS) Elev 7543 ft | 37.44 °N, 105.86 °W | Change Station

Current weather conditions updated 2 hours ago

Clear
Clear
70 °F
Feels Like 70 °F
N
0
Wind Variable Wind from North

Today is forecast to be nearly the same temperature as yesterday.

Today
High -- | Low -- °F
--% Chance of Precip.
Yesterday
High -- | Low -- °F
Precip. -- in
6:02 AM 8:16 PM
Waning Crescent, 0% visible
Pressure 30.11 in
Visibility 10.0 miles
Clouds Clear
Dew Point 51 °F
Humidity 51%
Rainfall 0.00 in
Snow Depth Not available.
UV 7 out of 12
Pollen 7.10 out of 12
Air Quality Not available.
Flu Activity Not available.
METAR KALS 261552Z AUTO 00000KT 10SM CLR 21/11 A3040 RMK AO2 SLP195 T02110106

More Conditions Fewer Conditions

Pressure 30.11 in
Visibility 10.0 miles
Clouds Clear
Dew Point 51 °F
Humidity 51%
Rainfall 0.00 in
Snow Depth Not available.
UV 7 out of 12
Pollen 7.10 out of 12
Air Quality Not available.
Flu Activity Not available.
METAR KALS 261552Z AUTO 00000KT 10SM CLR 21/11 A3040 RMK AO2 SLP195 T02110106

More Conditions Fewer Conditions

10-Day Weather Forecast

Almanac

Astronomy

Jul. 26, 2014 Rise Set
Actual Time 6:02 AM MDT 8:16 PM MDT
Civil Twilight 5:33 AM MDT 8:45 PM MDT
Nautical Twilight 4:57 AM MDT 9:21 PM MDT
Astronomical Twilight 4:17 AM MDT 10:01 PM MDT
Moon 5:56 AM MDT 7:55 PM MDT
Length of Visible Light 15h 12m
Length of Day
14h 13m
Tomorrow will be 1m 38s shorter.
Waning Crescent, 0% of the Moon is Illuminated
Today
Waning Crescent
Jul 26
New
Aug 3
First Quarter
Aug 10
Full
Aug 17
Last Quarter

Today's Extremes

State Highs State Lows

Community

WunderPhotos

Upload Photos

1,737,657 photos uploaded!

Nearby

Snow Depth

Station Depth Elevation
Medano Pass 0 in 9620 ft
Upper San Juan 0 in 10130 ft
Middle Creek 0 in 11250 ft
Rough And Tumble 0 in 10360 ft
Lizard Head Pass 0 in 10200 ft

Earthquake Activity

City Distance Mag. Time & Date
No recent earthquake activity has been reported nearby.
Minimum magnitude displayed is 2.5.

Coastal Water Temperatures

Place Temperature
No Stations Reporting

Nearby Weather Stations

Station Location Temp. Heat Index Dew Point Humidity Wind Precip. Elev Updated Type
NE of Alamosa, Alamosa, CO 80.4 °F 80 °F 51 °F 36% SSW  at  0.0 mph 0.00 in / hr 7556 ft 12:32 PM MDT Normal
Monte Vista, CO 79.6 °F 80 °F 53 °F 40% ESE  at  6.8 mph 0.00 in / hr 7674 ft 12:32 PM MDT Rapid Fire
WestMonteVista, Monte Vista, CO 82.6 °F 82 °F 55 °F 39% SE  at  4.5 mph 0.00 in / hr 7684 ft 12:31 PM MDT Normal
Hooper, Hooper, CO 84.0 °F 82 °F 50 °F 31% West  at  1.0 mph 0.00 in / hr 7559 ft 12:32 PM MDT Rapid Fire

Show More Stations Show Fewer Stations